createdAt,value
2019-03-28T00:00:11.023Z,9.46
2019-03-28T00:01:11.015Z,9.39
2019-03-28T00:02:11.791Z,9.40
2019-03-28T00:03:11.018Z,9.43
2019-03-28T00:04:11.012Z,9.40
2019-03-28T00:05:10.990Z,9.47
2019-03-28T00:06:10.965Z,9.43
2019-03-28T00:07:10.943Z,9.32
2019-03-28T00:08:12.530Z,9.31
2019-03-28T00:09:10.913Z,9.40
2019-03-28T00:10:10.912Z,9.34
2019-03-28T00:11:10.891Z,9.32
2019-03-28T00:12:10.931Z,9.29
2019-03-28T00:13:10.917Z,9.32
2019-03-28T00:14:10.897Z,9.34
2019-03-28T00:15:10.850Z,9.36
2019-03-28T00:16:10.830Z,9.23
2019-03-28T00:17:10.825Z,9.25
2019-03-28T00:18:10.825Z,9.31
2019-03-28T00:19:10.847Z,9.26
2019-03-28T00:20:10.834Z,9.25
2019-03-28T00:21:10.792Z,9.25
2019-03-28T00:22:10.793Z,9.26
2019-03-28T00:23:10.782Z,9.28
2019-03-28T00:24:10.756Z,9.26
2019-03-28T00:25:10.951Z,9.26
2019-03-28T00:26:10.751Z,9.23
2019-03-28T00:27:10.725Z,9.23
2019-03-28T00:28:11.279Z,9.25
2019-03-28T00:29:10.702Z,9.21
2019-03-28T00:30:10.722Z,9.19
2019-03-28T00:31:10.735Z,9.26
2019-03-28T00:32:10.704Z,9.22
2019-03-28T00:33:10.670Z,9.22
2019-03-28T00:34:10.675Z,9.25
2019-03-28T00:35:10.631Z,9.23
2019-03-28T00:36:10.633Z,9.26
2019-03-28T00:37:10.626Z,9.26
2019-03-28T00:38:10.599Z,9.28
2019-03-28T00:39:10.578Z,9.21
2019-03-28T00:40:10.599Z,9.28
2019-03-28T00:41:10.616Z,9.29
2019-03-28T00:42:10.546Z,9.28
2019-03-28T00:43:10.559Z,9.25
2019-03-28T00:44:10.635Z,9.26
2019-03-28T00:45:10.519Z,9.26
2019-03-28T00:46:10.499Z,9.25
2019-03-28T00:47:11.092Z,9.29
2019-03-28T00:48:10.490Z,9.25
2019-03-28T00:49:10.493Z,9.29
2019-03-28T00:50:10.475Z,9.37
2019-03-28T00:51:10.453Z,9.25
2019-03-28T00:52:10.461Z,9.26
2019-03-28T00:53:10.483Z,9.28
2019-03-28T00:54:10.470Z,9.19
2019-03-28T00:55:11.313Z,9.16
2019-03-28T00:56:10.392Z,9.18
2019-03-28T00:57:10.394Z,9.13
2019-03-28T00:58:10.412Z,9.21
2019-03-28T00:59:10.394Z,9.14
2019-03-28T01:00:10.510Z,9.08
2019-03-28T01:01:10.337Z,9.13
2019-03-28T01:02:10.334Z,9.11
2019-03-28T01:03:11.175Z,9.11
2019-03-28T01:04:10.313Z,9.16
2019-03-28T01:05:10.559Z,9.19
2019-03-28T01:06:10.286Z,9.16
2019-03-28T01:07:10.296Z,9.18
2019-03-28T01:08:11.286Z,9.14
2019-03-28T01:09:10.298Z,9.14
2019-03-28T01:10:10.286Z,9.14
2019-03-28T01:11:10.318Z,9.02
2019-03-28T01:12:10.214Z,9.14
2019-03-28T01:13:10.230Z,9.14
2019-03-28T01:14:10.220Z,9.08
2019-03-28T01:15:10.197Z,9.19
2019-03-28T01:16:10.210Z,9.04
2019-03-28T01:17:10.260Z,9.16
2019-03-28T01:18:10.156Z,9.08
2019-03-28T01:19:10.190Z,9.16
2019-03-28T01:20:10.139Z,9.16
2019-03-28T01:21:10.148Z,9.18
2019-03-28T01:22:10.141Z,9.18
2019-03-28T01:23:10.096Z,9.16
2019-03-28T01:24:10.095Z,9.11
2019-03-28T01:25:10.071Z,9.16
2019-03-28T01:26:10.069Z,9.08
2019-03-28T01:27:10.195Z,9.11
2019-03-28T01:28:10.141Z,9.13
2019-03-28T01:29:10.034Z,9.21
2019-03-28T01:30:10.099Z,9.19
2019-03-28T01:31:10.342Z,9.10
2019-03-28T01:32:10.000Z,9.19
2019-03-28T01:33:09.979Z,9.18
2019-03-28T01:34:10.032Z,9.06
2019-03-28T01:35:09.960Z,9.03
2019-03-28T01:36:09.989Z,9.06
2019-03-28T01:37:09.935Z,9.00
2019-03-28T01:38:09.947Z,9.08
2019-03-28T01:39:10.226Z,9.10
2019-03-28T01:40:09.917Z,9.08
2019-03-28T01:41:09.932Z,9.06
2019-03-28T01:42:09.894Z,9.13
2019-03-28T01:43:10.797Z,8.99
2019-03-28T01:44:09.944Z,8.97
2019-03-28T01:45:09.897Z,8.94
2019-03-28T01:46:09.869Z,8.95
2019-03-28T01:47:09.825Z,8.95
2019-03-28T01:48:09.842Z,9.00
2019-03-28T01:49:09.852Z,8.99
2019-03-28T01:50:09.802Z,8.97
2019-03-28T01:51:09.847Z,8.95
2019-03-28T01:52:09.777Z,8.95
2019-03-28T01:53:09.769Z,9.08
2019-03-28T01:54:09.874Z,9.11
2019-03-28T01:55:09.780Z,8.95
2019-03-28T01:56:09.737Z,8.99
2019-03-28T01:57:11.274Z,8.99
2019-03-28T01:58:09.719Z,9.06
2019-03-28T01:59:09.712Z,8.99
2019-03-28T02:00:09.801Z,8.92
2019-03-28T02:01:09.687Z,8.97
2019-03-28T02:02:09.668Z,8.97
2019-03-28T02:03:09.682Z,8.87
2019-03-28T02:04:09.649Z,8.88
2019-03-28T02:05:09.668Z,8.97
2019-03-28T02:06:09.667Z,8.94
2019-03-28T02:07:09.692Z,8.84
2019-03-28T02:08:09.606Z,8.87
2019-03-28T02:09:09.613Z,8.91
2019-03-28T02:10:09.610Z,8.91
2019-03-28T02:11:09.603Z,8.92
2019-03-28T02:12:09.558Z,8.88
2019-03-28T02:13:09.553Z,8.84
2019-03-28T02:14:09.543Z,8.82
2019-03-28T02:15:09.584Z,8.84
2019-03-28T02:16:09.524Z,8.89
2019-03-28T02:17:09.546Z,8.87
2019-03-28T02:18:09.524Z,8.87
2019-03-28T02:19:09.482Z,8.84
2019-03-28T02:20:10.313Z,8.89
2019-03-28T02:21:09.719Z,8.88
2019-03-28T02:22:09.447Z,8.91
2019-03-28T02:23:10.376Z,8.82
2019-03-28T02:24:09.486Z,8.85
2019-03-28T02:25:09.425Z,8.88
2019-03-28T02:26:09.551Z,8.92
2019-03-28T02:27:09.395Z,8.88
2019-03-28T02:28:09.380Z,8.88
2019-03-28T02:29:09.439Z,8.91
2019-03-28T02:30:09.353Z,8.89
2019-03-28T02:31:09.345Z,8.89
2019-03-28T02:32:09.344Z,8.92
2019-03-28T02:33:09.343Z,8.78
2019-03-28T02:34:09.321Z,8.91
2019-03-28T02:35:09.348Z,8.92
2019-03-28T02:36:09.319Z,8.91
2019-03-28T02:37:09.293Z,8.84
2019-03-28T02:38:09.275Z,8.85
2019-03-28T02:39:09.267Z,8.81
2019-03-28T02:40:09.312Z,8.82
2019-03-28T02:41:09.236Z,8.84
2019-03-28T02:42:09.232Z,8.87
2019-03-28T02:43:09.237Z,8.88
2019-03-28T02:44:09.210Z,8.82
2019-03-28T02:45:09.204Z,8.88
2019-03-28T02:46:09.224Z,8.84
2019-03-28T02:47:09.168Z,8.82
2019-03-28T02:48:09.211Z,8.89
2019-03-28T02:49:09.160Z,8.84
2019-03-28T02:50:09.271Z,8.88
2019-03-28T02:51:09.163Z,8.87
2019-03-28T02:52:09.147Z,8.81
2019-03-28T02:53:09.204Z,8.88
2019-03-28T02:54:09.132Z,8.81
2019-03-28T02:55:09.116Z,8.84
2019-03-28T02:56:09.075Z,8.84
2019-03-28T02:57:09.064Z,8.84
2019-03-28T02:58:09.064Z,8.91
2019-03-28T02:59:09.047Z,8.85
2019-03-28T03:00:09.066Z,8.87
2019-03-28T03:01:09.026Z,8.84
2019-03-28T03:02:09.002Z,8.85
2019-03-28T03:03:08.990Z,8.87
2019-03-28T03:04:09.013Z,8.82
2019-03-28T03:05:09.033Z,8.85
2019-03-28T03:06:09.070Z,8.84
2019-03-28T03:07:08.974Z,8.84
2019-03-28T03:08:08.956Z,8.88
2019-03-28T03:09:08.974Z,8.85
2019-03-28T03:10:08.917Z,8.82
2019-03-28T03:11:09.637Z,8.82
2019-03-28T03:12:08.943Z,8.87
2019-03-28T03:13:08.882Z,8.84
2019-03-28T03:14:08.931Z,8.85
2019-03-28T03:15:08.902Z,8.84
2019-03-28T03:16:08.849Z,8.81
2019-03-28T03:17:08.858Z,8.82
2019-03-28T03:18:08.861Z,8.81
2019-03-28T03:19:08.829Z,8.82
2019-03-28T03:20:08.842Z,8.84
2019-03-28T03:21:09.884Z,8.82
2019-03-28T03:22:08.791Z,8.79
2019-03-28T03:23:08.820Z,8.84
2019-03-28T03:24:08.776Z,8.70
2019-03-28T03:25:08.772Z,8.81
2019-03-28T03:26:08.744Z,8.78
2019-03-28T03:27:09.323Z,8.81
2019-03-28T03:28:08.730Z,8.82
2019-03-28T03:29:08.764Z,8.79
2019-03-28T03:30:08.794Z,8.79
2019-03-28T03:31:08.769Z,8.82
2019-03-28T03:32:08.686Z,8.82
2019-03-28T03:33:09.448Z,8.79
2019-03-28T03:34:08.663Z,8.84
2019-03-28T03:35:08.701Z,8.78
2019-03-28T03:36:08.639Z,8.76
2019-03-28T03:37:08.641Z,8.82
2019-03-28T03:38:08.620Z,8.81
2019-03-28T03:39:08.601Z,8.76
2019-03-28T03:40:08.697Z,8.79
2019-03-28T03:41:08.625Z,8.70
2019-03-28T03:42:08.585Z,8.79
2019-03-28T03:43:08.556Z,8.73
2019-03-28T03:44:08.549Z,8.71
2019-03-28T03:45:09.337Z,8.71
2019-03-28T03:46:08.690Z,8.74
2019-03-28T03:47:08.537Z,8.71
2019-03-28T03:48:08.484Z,8.70
2019-03-28T03:49:08.537Z,8.64
2019-03-28T03:50:08.490Z,8.67
2019-03-28T03:51:08.453Z,8.67
2019-03-28T03:52:08.499Z,8.66
2019-03-28T03:53:08.449Z,8.78
2019-03-28T03:54:08.442Z,8.73
2019-03-28T03:55:08.490Z,8.71
2019-03-28T03:56:08.408Z,8.79
2019-03-28T03:57:08.394Z,8.67
2019-03-28T03:58:16.383Z,8.76
2019-03-28T03:59:09.381Z,8.69
2019-03-28T04:00:08.366Z,8.71
2019-03-28T04:01:08.353Z,8.69
2019-03-28T04:02:08.366Z,8.67
2019-03-28T04:03:08.381Z,8.70
2019-03-28T04:04:08.404Z,8.73
2019-03-28T04:05:08.323Z,8.69
2019-03-28T04:06:08.294Z,8.76
2019-03-28T04:07:08.298Z,8.70
2019-03-28T04:08:08.391Z,8.67
2019-03-28T04:09:08.309Z,8.67
2019-03-28T04:10:08.245Z,8.70
2019-03-28T04:11:08.247Z,8.73
2019-03-28T04:12:08.260Z,8.69
2019-03-28T04:13:08.229Z,8.74
2019-03-28T04:14:08.212Z,8.70
2019-03-28T04:15:08.250Z,8.69
2019-03-28T04:16:08.207Z,8.70
2019-03-28T04:17:08.191Z,8.67
2019-03-28T04:18:08.180Z,8.71
2019-03-28T04:19:08.176Z,8.73
2019-03-28T04:20:08.147Z,8.69
2019-03-28T04:21:08.162Z,8.71
2019-03-28T04:22:08.242Z,8.70
2019-03-28T04:23:08.291Z,8.71
2019-03-28T04:24:08.098Z,8.69
2019-03-28T04:25:08.090Z,8.63
2019-03-28T04:26:08.167Z,8.63
2019-03-28T04:27:08.068Z,8.64
2019-03-28T04:28:08.054Z,8.71
2019-03-28T04:29:08.054Z,8.67
2019-03-28T04:30:08.048Z,8.70
2019-03-28T04:31:08.112Z,8.69
2019-03-28T04:32:08.016Z,8.67
2019-03-28T04:33:08.066Z,8.73
2019-03-28T04:34:09.389Z,8.69
2019-03-28T04:35:07.988Z,8.73
2019-03-28T04:36:07.988Z,8.69
2019-03-28T04:37:07.998Z,8.73
2019-03-28T04:38:08.014Z,8.69
2019-03-28T04:39:07.972Z,8.69
2019-03-28T04:40:08.665Z,8.76
2019-03-28T04:41:07.922Z,8.70
2019-03-28T04:42:07.967Z,8.73
2019-03-28T04:43:07.916Z,8.69
2019-03-28T04:44:07.932Z,8.69
2019-03-28T04:45:07.860Z,8.67
2019-03-28T04:46:07.862Z,8.69
2019-03-28T04:47:07.840Z,8.74
2019-03-28T04:48:07.826Z,8.71
2019-03-28T04:49:07.874Z,8.70
2019-03-28T04:50:07.813Z,8.71
2019-03-28T04:51:07.805Z,8.70
2019-03-28T04:52:07.804Z,8.71
2019-03-28T04:53:07.868Z,8.69
2019-03-28T04:54:09.871Z,8.70
2019-03-28T04:55:07.796Z,8.67
2019-03-28T04:56:07.753Z,8.66
2019-03-28T04:57:07.758Z,8.70
2019-03-28T04:58:07.744Z,8.67
2019-03-28T04:59:07.766Z,8.69
2019-03-28T05:00:08.375Z,8.61
2019-03-28T05:01:07.718Z,8.63
2019-03-28T05:02:07.681Z,8.69
2019-03-28T05:03:07.677Z,8.63
2019-03-28T05:04:07.670Z,8.61
2019-03-28T05:05:07.687Z,8.60
2019-03-28T05:06:07.770Z,8.58
2019-03-28T05:07:07.659Z,8.63
2019-03-28T05:08:08.383Z,8.60
2019-03-28T05:09:07.737Z,8.63
2019-03-28T05:10:07.619Z,8.60
2019-03-28T05:11:07.608Z,8.69
2019-03-28T05:12:07.608Z,8.58
2019-03-28T05:13:08.432Z,8.56
2019-03-28T05:14:07.558Z,8.64
2019-03-28T05:15:07.539Z,8.63
2019-03-28T05:16:07.517Z,8.70
2019-03-28T05:17:14.986Z,8.66
2019-03-28T05:18:07.519Z,8.69
2019-03-28T05:19:07.502Z,8.71
2019-03-28T05:20:07.518Z,8.74
2019-03-28T05:21:07.508Z,8.66
2019-03-28T05:22:07.624Z,8.71
2019-03-28T05:23:07.457Z,8.73
2019-03-28T05:24:07.486Z,8.79
2019-03-28T05:25:08.377Z,8.82
2019-03-28T05:26:07.457Z,8.79
2019-03-28T05:27:07.518Z,8.82
2019-03-28T05:28:07.418Z,8.73
2019-03-28T05:29:07.411Z,8.71
2019-03-28T05:30:07.402Z,8.67
2019-03-28T05:31:07.825Z,8.71
2019-03-28T05:32:07.362Z,8.70
2019-03-28T05:33:07.419Z,8.73
2019-03-28T05:34:08.320Z,8.73
2019-03-28T05:35:07.343Z,8.70
2019-03-28T05:36:07.313Z,8.73
2019-03-28T05:37:07.313Z,8.76
2019-03-28T05:38:07.496Z,8.69
2019-03-28T05:39:07.294Z,8.71
2019-03-28T05:40:07.326Z,8.74
2019-03-28T05:41:07.285Z,8.66
2019-03-28T05:42:07.251Z,8.69
2019-03-28T05:43:07.224Z,8.66
2019-03-28T05:44:07.214Z,8.67
2019-03-28T05:45:07.201Z,8.73
2019-03-28T05:46:07.236Z,8.70
2019-03-28T05:47:07.201Z,8.69
2019-03-28T05:48:07.279Z,8.71
2019-03-28T05:49:07.276Z,8.66
2019-03-28T05:50:07.151Z,8.67
2019-03-28T05:51:07.180Z,8.67
2019-03-28T05:52:07.122Z,8.66
2019-03-28T05:53:07.166Z,8.67
2019-03-28T05:54:07.129Z,8.64
2019-03-28T05:55:07.101Z,8.67
2019-03-28T05:56:07.099Z,8.69
2019-03-28T05:57:07.076Z,8.66
2019-03-28T05:58:09.588Z,8.73
2019-03-28T05:59:11.086Z,8.69
2019-03-28T06:00:07.051Z,8.64
2019-03-28T06:01:07.031Z,8.71
2019-03-28T06:02:07.024Z,8.78
2019-03-28T06:03:07.052Z,8.81
2019-03-28T06:04:07.085Z,8.78
2019-03-28T06:05:07.127Z,8.79
2019-03-28T06:06:06.967Z,8.76
2019-03-28T06:07:08.815Z,8.82
2019-03-28T06:08:06.977Z,8.79
2019-03-28T06:09:06.955Z,8.81
2019-03-28T06:10:06.941Z,8.78
2019-03-28T06:11:06.919Z,8.85
2019-03-28T06:12:06.933Z,8.82
2019-03-28T06:13:06.924Z,8.82
2019-03-28T06:14:06.928Z,8.89
2019-03-28T06:15:06.909Z,8.88
2019-03-28T06:16:06.862Z,8.82
2019-03-28T06:17:06.908Z,8.82
2019-03-28T06:18:06.830Z,8.89
2019-03-28T06:19:06.832Z,8.91
2019-03-28T06:20:06.822Z,8.94
2019-03-28T06:21:06.875Z,8.94
2019-03-28T06:22:06.859Z,8.97
2019-03-28T06:23:06.790Z,8.95
2019-03-28T06:24:06.851Z,8.82
2019-03-28T06:25:06.779Z,8.89
2019-03-28T06:26:06.740Z,8.92
2019-03-28T06:27:07.494Z,8.95
2019-03-28T06:28:06.713Z,8.97
2019-03-28T06:29:08.555Z,8.97
2019-03-28T06:30:06.716Z,8.95
2019-03-28T06:31:06.688Z,8.95
2019-03-28T06:32:06.687Z,8.95
2019-03-28T06:33:06.701Z,8.97
2019-03-28T06:34:06.794Z,9.03
2019-03-28T06:35:06.658Z,9.02
2019-03-28T06:36:06.646Z,9.11
2019-03-28T06:37:06.696Z,9.04
2019-03-28T06:38:06.623Z,9.02
2019-03-28T06:39:06.647Z,9.00
2019-03-28T06:40:06.616Z,9.03
2019-03-28T06:41:06.590Z,9.22
2019-03-28T06:42:06.764Z,9.16
2019-03-28T06:43:06.579Z,9.18
2019-03-28T06:44:06.571Z,9.13
2019-03-28T06:45:06.541Z,9.11
2019-03-28T06:46:06.545Z,9.13
2019-03-28T06:47:06.527Z,9.21
2019-03-28T06:48:06.558Z,9.14
2019-03-28T06:49:06.498Z,9.21
2019-03-28T06:50:06.501Z,9.25
2019-03-28T06:51:06.483Z,9.23
2019-03-28T06:52:06.459Z,9.23
2019-03-28T06:53:06.458Z,9.25
2019-03-28T06:54:06.477Z,9.25
2019-03-28T06:55:06.455Z,9.37
2019-03-28T06:56:06.422Z,9.31
2019-03-28T06:57:06.399Z,9.29
2019-03-28T06:58:06.515Z,9.39
2019-03-28T06:59:06.374Z,9.32
2019-03-28T07:00:06.389Z,9.36
2019-03-28T07:01:06.380Z,9.39
2019-03-28T07:02:06.342Z,9.44
2019-03-28T07:03:06.331Z,9.41
2019-03-28T07:04:06.330Z,9.39
2019-03-28T07:05:06.329Z,9.37
2019-03-28T07:06:06.329Z,9.40
2019-03-28T07:07:06.955Z,9.47
2019-03-28T07:08:06.338Z,9.50
2019-03-28T07:09:06.270Z,9.48
2019-03-28T07:10:06.254Z,9.48
2019-03-28T07:11:06.279Z,9.48
2019-03-28T07:12:06.257Z,9.51
2019-03-28T07:13:06.242Z,9.44
2019-03-28T07:14:06.365Z,9.55
2019-03-28T07:15:06.217Z,9.54
2019-03-28T07:16:06.192Z,9.56
2019-03-28T07:17:06.255Z,9.61
2019-03-28T07:18:06.184Z,9.50
2019-03-28T07:19:06.163Z,9.62
2019-03-28T07:20:08.868Z,9.61
2019-03-28T07:21:06.141Z,9.66
2019-03-28T07:22:06.161Z,9.62
2019-03-28T07:23:06.157Z,9.58
2019-03-28T07:24:06.105Z,9.64
2019-03-28T07:25:06.170Z,9.64
2019-03-28T07:26:06.098Z,9.74
2019-03-28T07:27:06.084Z,9.74
2019-03-28T07:28:06.650Z,9.69
2019-03-28T07:29:06.050Z,9.73
2019-03-28T07:30:06.092Z,9.77
2019-03-28T07:31:06.038Z,9.72
2019-03-28T07:32:06.028Z,9.73
2019-03-28T07:33:06.019Z,9.73
2019-03-28T07:34:05.996Z,9.65
2019-03-28T07:35:05.984Z,9.65
2019-03-28T07:36:06.012Z,9.66
2019-03-28T07:37:05.960Z,9.68
2019-03-28T07:38:06.901Z,9.64
2019-03-28T07:39:05.950Z,9.77
2019-03-28T07:40:05.934Z,9.62
2019-03-28T07:41:06.069Z,9.64
2019-03-28T07:42:05.938Z,9.72
2019-03-28T07:43:05.925Z,9.73
2019-03-28T07:44:05.896Z,9.62
2019-03-28T07:45:05.931Z,9.68
2019-03-28T07:46:05.903Z,9.73
2019-03-28T07:47:05.856Z,9.73
2019-03-28T07:48:05.848Z,9.73
2019-03-28T07:49:05.832Z,9.79
2019-03-28T07:50:05.873Z,9.84
2019-03-28T07:51:05.863Z,9.80
2019-03-28T07:52:05.793Z,9.91
2019-03-28T07:53:05.788Z,9.98
2019-03-28T07:54:05.787Z,10.04
2019-03-28T07:55:05.890Z,10.07
2019-03-28T07:56:05.753Z,10.01
2019-03-28T07:57:05.902Z,10.04
2019-03-28T07:58:07.505Z,10.12
2019-03-28T07:59:05.718Z,10.15
2019-03-28T08:00:05.754Z,10.10
2019-03-28T08:01:05.718Z,10.16
2019-03-28T08:02:05.709Z,10.10
2019-03-28T08:03:05.682Z,10.15
2019-03-28T08:04:05.695Z,10.22
2019-03-28T08:05:05.655Z,10.30
2019-03-28T08:06:05.651Z,10.25
2019-03-28T08:07:05.636Z,10.31
2019-03-28T08:08:05.629Z,10.28
2019-03-28T08:09:05.617Z,10.42
2019-03-28T08:10:05.821Z,10.40
2019-03-28T08:11:05.601Z,10.37
2019-03-28T08:12:05.577Z,10.41
2019-03-28T08:13:05.639Z,10.46
2019-03-28T08:14:05.569Z,10.49
2019-03-28T08:15:05.538Z,10.54
2019-03-28T08:16:05.610Z,10.53
2019-03-28T08:17:05.553Z,10.53
2019-03-28T08:18:05.522Z,10.44
2019-03-28T08:19:08.037Z,10.40
2019-03-28T08:20:05.516Z,10.38
2019-03-28T08:21:05.593Z,10.41
2019-03-28T08:22:05.474Z,10.44
2019-03-28T08:23:05.475Z,10.42
2019-03-28T08:24:05.524Z,10.41
2019-03-28T08:25:09.544Z,10.38
2019-03-28T08:26:06.511Z,10.38
2019-03-28T08:27:05.464Z,10.37
2019-03-28T08:28:05.416Z,10.40
2019-03-28T08:29:05.450Z,10.38
2019-03-28T08:30:17.526Z,10.40
2019-03-28T08:31:06.396Z,10.40
2019-03-28T08:32:05.345Z,10.35
2019-03-28T08:33:05.381Z,10.41
2019-03-28T08:34:06.425Z,10.40
2019-03-28T08:35:05.360Z,10.42
2019-03-28T08:36:05.318Z,10.49
2019-03-28T08:37:05.299Z,10.49
2019-03-28T08:38:05.306Z,10.56
2019-03-28T08:39:05.287Z,10.54
2019-03-28T08:40:05.272Z,10.57
2019-03-28T08:41:07.070Z,10.69
2019-03-28T08:42:05.289Z,10.68
2019-03-28T08:43:05.242Z,10.69
2019-03-28T08:44:07.271Z,10.68
2019-03-28T08:45:05.225Z,10.74
2019-03-28T08:46:08.525Z,10.79
2019-03-28T08:47:06.352Z,10.81
2019-03-28T08:48:05.193Z,10.87
2019-03-28T08:49:05.180Z,10.90
2019-03-28T08:50:05.167Z,11.00
2019-03-28T08:51:05.198Z,10.99
2019-03-28T08:52:05.163Z,10.99
2019-03-28T08:53:05.219Z,11.00
2019-03-28T08:54:05.126Z,11.02
2019-03-28T08:55:05.133Z,10.94
2019-03-28T08:56:05.147Z,10.96
2019-03-28T08:57:05.088Z,11.02
2019-03-28T08:58:05.076Z,11.05
2019-03-28T08:59:05.064Z,11.12
2019-03-28T09:00:05.090Z,11.11
2019-03-28T09:01:05.968Z,11.12
2019-03-28T09:02:05.229Z,11.22
2019-03-28T09:03:05.026Z,11.18
2019-03-28T09:04:05.004Z,11.22
2019-03-28T09:05:05.026Z,11.18
2019-03-28T09:06:04.987Z,11.23
2019-03-28T09:07:04.964Z,11.17
2019-03-28T09:08:04.981Z,11.18
2019-03-28T09:09:04.944Z,11.22
2019-03-28T09:10:04.972Z,11.19
2019-03-28T09:11:04.957Z,11.17
2019-03-28T09:12:04.902Z,11.15
2019-03-28T09:13:04.904Z,11.19
2019-03-28T09:14:04.996Z,11.23
2019-03-28T09:15:04.886Z,11.19
2019-03-28T09:16:04.906Z,11.19
2019-03-28T09:17:04.882Z,11.18
2019-03-28T09:18:04.862Z,11.22
2019-03-28T09:19:04.834Z,11.19
2019-03-28T09:20:04.820Z,11.22
2019-03-28T09:21:04.821Z,11.26
2019-03-28T09:22:04.817Z,11.32
2019-03-28T09:23:04.794Z,11.41
2019-03-28T09:24:04.788Z,11.35
2019-03-28T09:25:04.775Z,11.45
2019-03-28T09:26:04.927Z,11.51
2019-03-28T09:27:04.773Z,11.47
2019-03-28T09:28:04.741Z,11.52
2019-03-28T09:29:04.761Z,11.59
2019-03-28T09:30:04.899Z,11.57
2019-03-28T09:31:04.707Z,11.55
2019-03-28T09:32:04.739Z,11.52
2019-03-28T09:33:04.799Z,11.48
2019-03-28T09:34:04.673Z,11.57
2019-03-28T09:35:04.665Z,11.54
2019-03-28T09:36:04.715Z,11.48
2019-03-28T09:37:04.690Z,11.50
2019-03-28T09:38:04.631Z,11.48
2019-03-28T09:39:04.652Z,11.47
2019-03-28T09:40:04.624Z,11.45
2019-03-28T09:41:04.597Z,11.57
2019-03-28T09:42:04.578Z,11.55
2019-03-28T09:43:04.569Z,11.55
2019-03-28T09:44:04.586Z,11.54
2019-03-28T09:45:04.558Z,11.57
2019-03-28T09:46:04.540Z,11.59
2019-03-28T09:47:04.526Z,11.65
2019-03-28T09:48:04.520Z,11.63
2019-03-28T09:49:04.525Z,11.72
2019-03-28T09:50:04.490Z,11.63
2019-03-28T09:51:04.486Z,11.72
2019-03-28T09:52:04.474Z,11.70
2019-03-28T09:53:04.493Z,11.73
2019-03-28T09:54:04.466Z,11.75
2019-03-28T09:55:04.445Z,11.81
2019-03-28T09:56:04.432Z,11.88
2019-03-28T09:57:04.586Z,12.04
2019-03-28T09:58:04.402Z,12.02
2019-03-28T09:59:04.415Z,12.04
2019-03-28T10:00:04.452Z,12.18
2019-03-28T10:01:04.365Z,12.24
2019-03-28T10:02:04.413Z,12.29
2019-03-28T10:03:04.353Z,12.32
2019-03-28T10:04:06.466Z,12.42
2019-03-28T10:05:04.328Z,12.45
2019-03-28T10:06:04.316Z,12.54
2019-03-28T10:07:04.320Z,12.49
2019-03-28T10:08:04.297Z,12.47
2019-03-28T10:09:04.292Z,12.72
2019-03-28T10:10:04.365Z,12.62
2019-03-28T10:11:04.267Z,12.68
2019-03-28T10:12:04.263Z,12.65
2019-03-28T10:13:04.243Z,12.57
2019-03-28T10:14:04.239Z,12.58
2019-03-28T10:15:04.247Z,12.55
2019-03-28T10:16:04.411Z,12.53
2019-03-28T10:17:04.195Z,12.58
2019-03-28T10:18:04.214Z,12.49
2019-03-28T10:19:04.939Z,12.53
2019-03-28T10:20:05.710Z,12.53
2019-03-28T10:21:04.148Z,12.70
2019-03-28T10:22:04.174Z,12.68
2019-03-28T10:23:04.139Z,12.67
2019-03-28T10:24:04.110Z,12.76
2019-03-28T10:25:04.107Z,12.95
2019-03-28T10:26:04.113Z,12.90
2019-03-28T10:27:04.091Z,12.95
2019-03-28T10:28:04.117Z,13.05
2019-03-28T10:29:04.077Z,13.16
2019-03-28T10:30:04.050Z,12.98
2019-03-28T10:31:15.893Z,13.15
2019-03-28T10:32:05.088Z,13.16
2019-03-28T10:33:04.091Z,13.16
2019-03-28T10:34:04.066Z,13.22
2019-03-28T10:35:06.823Z,13.19
2019-03-28T10:36:03.996Z,13.20
2019-03-28T10:37:03.974Z,13.18
2019-03-28T10:38:03.954Z,13.15
2019-03-28T10:39:03.953Z,13.16
2019-03-28T10:40:04.149Z,13.12
2019-03-28T10:41:03.941Z,13.11
2019-03-28T10:42:03.921Z,13.15
2019-03-28T10:43:03.917Z,13.19
2019-03-28T10:44:03.911Z,13.15
2019-03-28T10:45:03.890Z,13.19
2019-03-28T10:46:03.907Z,13.27
2019-03-28T10:47:05.040Z,13.25
2019-03-28T10:48:03.849Z,13.23
2019-03-28T10:49:03.853Z,13.16
2019-03-28T10:50:04.421Z,13.11
2019-03-28T10:51:03.855Z,13.12
2019-03-28T10:52:04.177Z,12.94
2019-03-28T10:53:03.790Z,13.05
2019-03-28T10:54:03.780Z,13.13
2019-03-28T10:55:03.797Z,13.16
2019-03-28T10:56:03.837Z,13.08
2019-03-28T10:57:13.507Z,12.94
2019-03-28T10:58:17.740Z,12.95
2019-03-28T10:59:04.738Z,12.87
2019-03-28T11:00:03.721Z,12.87
2019-03-28T11:01:03.713Z,12.93
2019-03-28T11:02:03.698Z,12.95
2019-03-28T11:03:04.791Z,12.95
2019-03-28T11:04:03.678Z,13.05
2019-03-28T11:05:03.695Z,13.03
2019-03-28T11:06:03.663Z,13.08
2019-03-28T11:07:03.638Z,13.15
2019-03-28T11:09:12.411Z,13.11
2019-03-28T11:10:12.377Z,13.11
2019-03-28T11:11:12.376Z,13.05
2019-03-28T11:12:12.355Z,13.09
2019-03-28T11:13:12.344Z,13.15
2019-03-28T11:14:12.364Z,13.13
2019-03-28T11:15:12.374Z,13.12
2019-03-28T11:16:15.071Z,13.15
2019-03-28T11:17:12.305Z,13.13
2019-03-28T11:18:12.301Z,13.09
2019-03-28T11:19:15.577Z,13.12
2019-03-28T11:20:12.372Z,13.27
2019-03-28T11:21:12.296Z,13.22
2019-03-28T11:22:12.283Z,13.30
2019-03-28T11:23:12.246Z,13.23
2019-03-28T11:24:12.253Z,13.30
2019-03-28T11:25:12.215Z,13.19
2019-03-28T11:26:12.216Z,13.22
2019-03-28T11:27:12.223Z,13.18
2019-03-28T11:28:12.183Z,13.19
2019-03-28T11:29:12.173Z,13.16
2019-03-28T11:30:12.171Z,13.12
2019-03-28T11:31:12.148Z,13.18
2019-03-28T11:32:12.173Z,13.13
2019-03-28T11:33:12.163Z,13.11
2019-03-28T11:34:12.120Z,13.11
2019-03-28T11:35:12.109Z,13.12
2019-03-28T11:36:12.240Z,13.12
2019-03-28T11:37:25.471Z,13.01
2019-03-28T11:38:13.075Z,12.91
2019-03-28T11:39:12.075Z,12.85
2019-03-28T11:40:12.698Z,12.80
2019-03-28T11:41:12.048Z,12.86
2019-03-28T11:42:12.072Z,12.85
2019-03-28T11:43:12.024Z,12.83
2019-03-28T11:44:12.197Z,12.85
2019-03-28T11:45:12.012Z,12.94
2019-03-28T11:46:11.986Z,12.91
2019-03-28T11:47:12.001Z,12.95
2019-03-28T11:48:11.999Z,12.98
2019-03-28T11:49:11.963Z,13.09
2019-03-28T11:50:11.967Z,13.15
2019-03-28T11:51:11.936Z,13.11
2019-03-28T11:52:11.936Z,13.13
2019-03-28T11:53:11.915Z,13.19
2019-03-28T11:54:11.906Z,13.18
2019-03-28T11:55:11.899Z,13.16
2019-03-28T11:56:11.903Z,13.25
2019-03-28T11:57:11.867Z,13.05
2019-03-28T11:58:11.904Z,13.13
2019-03-28T11:59:11.853Z,13.15
2019-03-28T12:00:11.990Z,13.11
2019-03-28T12:01:11.826Z,13.09
2019-03-28T12:02:19.594Z,13.11
2019-03-28T12:03:12.807Z,13.05
2019-03-28T12:04:11.792Z,13.23
2019-03-28T12:05:11.778Z,13.25
2019-03-28T12:06:11.821Z,13.30
2019-03-28T12:07:11.770Z,13.42
2019-03-28T12:08:11.754Z,13.52
2019-03-28T12:09:12.268Z,13.52
2019-03-28T12:10:11.728Z,13.54
2019-03-28T12:11:11.711Z,13.57
2019-03-28T12:12:11.739Z,13.62
2019-03-28T12:13:11.694Z,13.67
2019-03-28T12:14:11.682Z,13.60
2019-03-28T12:15:11.672Z,13.70
2019-03-28T12:16:11.678Z,13.60
2019-03-28T12:17:11.672Z,13.57
2019-03-28T12:18:11.634Z,13.62
2019-03-28T12:19:11.683Z,13.62
2019-03-28T12:20:11.618Z,13.68
2019-03-28T12:21:11.602Z,13.60
2019-03-28T12:22:11.619Z,13.47
2019-03-28T12:23:11.594Z,13.38
2019-03-28T12:24:11.561Z,13.30
2019-03-28T12:25:11.585Z,13.28
2019-03-28T12:26:11.552Z,13.25
2019-03-28T12:27:11.539Z,13.20
2019-03-28T12:28:11.563Z,13.27
2019-03-28T12:29:11.512Z,13.19
2019-03-28T12:30:11.512Z,13.22
2019-03-28T12:31:11.529Z,13.31
2019-03-28T12:32:14.164Z,13.37
2019-03-28T12:33:11.471Z,13.44
2019-03-28T12:34:11.472Z,13.47
2019-03-28T12:35:11.466Z,13.52
2019-03-28T12:36:11.470Z,13.54
2019-03-28T12:37:11.420Z,13.59
2019-03-28T12:38:11.422Z,13.74
2019-03-28T12:39:11.397Z,13.68
2019-03-28T12:40:11.428Z,13.65
2019-03-28T12:41:11.380Z,13.67
2019-03-28T12:42:11.412Z,13.72
2019-03-28T12:43:11.387Z,13.75
2019-03-28T12:44:11.347Z,13.83
2019-03-28T12:45:11.360Z,13.89
2019-03-28T12:46:11.409Z,13.95
2019-03-28T12:47:11.317Z,13.89
2019-03-28T12:48:11.302Z,14.00
2019-03-28T12:49:11.340Z,14.08
2019-03-28T12:50:11.286Z,14.07
2019-03-28T12:51:11.314Z,14.10
2019-03-28T12:52:11.305Z,14.14
2019-03-28T12:53:11.242Z,14.23
2019-03-28T12:54:11.234Z,14.22
2019-03-28T12:55:11.254Z,14.20
2019-03-28T12:56:12.344Z,14.20
2019-03-28T12:57:14.263Z,14.23
2019-03-28T12:58:11.194Z,14.22
2019-03-28T12:59:11.223Z,14.26
2019-03-28T13:00:11.172Z,14.30
2019-03-28T13:01:11.182Z,14.33
2019-03-28T13:02:11.140Z,14.28
2019-03-28T13:03:11.135Z,14.36
2019-03-28T13:04:11.151Z,14.37
2019-03-28T13:05:11.117Z,14.43
2019-03-28T13:06:11.183Z,14.53
2019-03-28T13:07:11.090Z,14.45
2019-03-28T13:08:11.103Z,14.59